Time;durP1;ratioP1;P1;durP2;ratioP2;P2;SDS_P1;SDS_P2;PMS_P1;PMS_P2;Temp;Humidity;BMP_temperature;BMP_pressure;BME280_temperature;BME280_humidity;BME280_pressure;Samples;Min_cycle;Max_cycle;Signal;HPM_P1;HPM_P2
2023/01/28 00:01:08;;;;;;;15.50;14.00;;;2.30;99.90;;;;;;6213380;23;20016;-87
2023/01/28 00:03:34;;;;;;;13.85;12.65;;;2.30;99.90;;;;;;6188036;23;20027;-87
2023/01/28 00:06:05;;;;;;;14.10;12.80;;;2.30;99.90;;;;;;6212995;23;20443;-88
2023/01/28 00:08:32;;;;;;;13.07;11.88;;;2.30;99.90;;;;;;6213069;23;20336;-87
2023/01/28 00:11:03;;;;;;;13.63;12.32;;;2.30;99.90;;;;;;6186942;23;20021;-87
2023/01/28 00:13:30;;;;;;;13.85;12.45;;;2.30;99.90;;;;;;6213257;23;20323;-87
2023/01/28 00:15:57;;;;;;;13.60;11.02;;;2.30;99.90;;;;;;6212860;23;20012;-87
2023/01/28 00:18:24;;;;;;;12.70;11.45;;;2.30;99.90;;;;;;6187423;23;20016;-87
2023/01/28 00:21:00;;;;;;;13.25;11.95;;;2.30;99.90;;;;;;6187684;23;20070;-87
2023/01/28 00:23:27;;;;;;;14.63;12.15;;;2.30;99.90;;;;;;6213034;23;20017;-87
2023/01/28 00:25:53;;;;;;;12.90;11.73;;;2.30;99.90;;;;;;6212485;23;20017;-87
2023/01/28 00:28:21;;;;;;;13.43;12.13;;;2.30;99.90;;;;;;6212606;23;20016;-88
2023/01/28 00:30:46;;;;;;;13.32;12.02;;;2.30;99.90;;;;;;6187456;23;20036;-88
2023/01/28 00:33:12;;;;;;;13.18;11.98;;;2.30;99.90;;;;;;6187612;23;20016;-87
2023/01/28 00:35:38;;;;;;;13.55;12.23;;;2.30;99.90;;;;;;6187161;23;20024;-87
2023/01/28 00:38:06;;;;;;;13.30;12.10;;;2.30;99.90;;;;;;6187999;23;20016;-88
2023/01/28 00:40:32;;;;;;;13.77;12.38;;;2.30;99.90;;;;;;6187416;23;20532;-89
2023/01/28 00:42:58;;;;;;;13.13;11.90;;;2.30;99.90;;;;;;6213248;23;20017;-87
2023/01/28 00:45:23;;;;;;;12.73;11.52;;;2.30;99.90;;;;;;6213871;23;20392;-87
2023/01/28 00:47:49;;;;;;;13.52;12.20;;;2.30;99.90;;;;;;6188008;23;20047;-88
2023/01/28 00:50:15;;;;;;;13.98;12.68;;;2.30;99.90;;;;;;6212696;23;20166;-88
2023/01/28 00:52:40;;;;;;;14.15;12.70;;;2.30;99.90;;;;;;6213106;23;20431;-88
2023/01/28 00:55:07;;;;;;;13.32;12.02;;;2.30;99.90;;;;;;6187446;23;20032;-87
2023/01/28 00:57:33;;;;;;;13.73;12.43;;;2.30;99.90;;;;;;6213009;23;20012;-87
2023/01/28 00:59:59;;;;;;;13.27;12.07;;;2.30;99.90;;;;;;6187610;23;20070;-88
2023/01/28 01:02:24;;;;;;;14.07;12.68;;;2.30;99.90;;;;;;6212824;23;20088;-87
2023/01/28 01:04:59;;;;;;;13.43;12.13;;;2.30;99.90;;;;;;6187651;23;20044;-88
2023/01/28 01:07:42;;;;;;;12.73;11.52;;;2.30;99.90;;;;;;6212880;23;20017;-86
2023/01/28 01:10:16;;;;;;;12.48;11.30;;;2.20;99.90;;;;;;6187081;23;20016;-87
2023/01/28 01:12:44;;;;;;;11.70;10.50;;;2.30;99.90;;;;;;6212990;23;20058;-87
2023/01/28 01:15:10;;;;;;;11.55;10.40;;;2.30;99.90;;;;;;6212756;23;20012;-87
2023/01/28 01:17:37;;;;;;;10.43;9.43;;;2.30;99.90;;;;;;6187314;23;20115;-87
2023/01/28 01:20:05;;;;;;;10.15;9.25;;;2.30;99.90;;;;;;6212414;23;20012;-87
2023/01/28 01:22:35;;;;;;;10.10;9.10;;;2.30;99.90;;;;;;6237933;23;20016;-88
2023/01/28 01:25:02;;;;;;;10.82;9.30;;;2.20;99.90;;;;;;6211852;23;20013;-88
2023/01/28 01:27:29;;;;;;;11.30;9.25;;;2.20;99.90;;;;;;6238436;23;20020;-87
2023/01/28 01:29:55;;;;;;;10.48;9.38;;;2.20;99.90;;;;;;6238111;23;20390;-87
2023/01/28 01:32:21;;;;;;;10.15;9.05;;;2.20;99.90;;;;;;6213014;23;20016;-87
2023/01/28 01:34:47;;;;;;;10.10;9.00;;;2.30;99.90;;;;;;6212524;23;20087;-87
2023/01/28 01:37:13;;;;;;;10.73;9.63;;;2.20;99.90;;;;;;6212930;23;20005;-87
2023/01/28 01:39:39;;;;;;;12.02;9.10;;;2.20;99.90;;;;;;6213033;23;20497;-88
2023/01/28 01:42:04;;;;;;;10.20;8.57;;;2.30;99.90;;;;;;6187318;23;20440;-86
2023/01/28 01:44:55;;;;;;;9.43;8.52;;;2.20;99.90;;;;;;6187090;23;20320;-88
2023/01/28 01:47:25;;;;;;;9.10;8.20;;;2.20;99.90;;;;;;6237969;23;20024;-87
2023/01/28 01:49:51;;;;;;;10.00;9.00;;;2.20;99.90;;;;;;6212101;23;20135;-87
2023/01/28 01:52:22;;;;;;;9.18;8.27;;;2.20;99.90;;;;;;6211507;23;20020;-87
2023/01/28 01:54:52;;;;;;;10.07;8.05;;;2.20;99.90;;;;;;6212324;23;20466;-88
2023/01/28 01:57:25;;;;;;;9.80;8.80;;;2.20;99.90;;;;;;6212597;23;20043;-87
2023/01/28 01:59:52;;;;;;;11.32;8.75;;;2.20;99.90;;;;;;6212372;23;20023;-87
2023/01/28 02:02:18;;;;;;;9.25;8.20;;;2.20;99.90;;;;;;6212629;23;20013;-88
2023/01/28 02:04:44;;;;;;;9.77;8.77;;;2.20;99.90;;;;;;6187025;23;20039;-87
2023/01/28 02:07:14;;;;;;;10.15;9.05;;;2.20;99.90;;;;;;6186482;23;20013;-87
2023/01/28 02:09:40;;;;;;;9.88;8.85;;;2.20;99.90;;;;;;6211987;23;20092;-87
2023/01/28 02:12:09;;;;;;;10.10;9.10;;;1.80;99.90;;;;;;6187051;23;20398;-87
2023/01/28 02:14:43;;;;;;;10.25;9.20;;;2.30;99.90;;;;;;6189083;23;20013;-86
2023/01/28 02:17:09;;;;;;;9.52;8.63;;;2.30;99.90;;;;;;6214263;23;20009;-87
2023/01/28 02:19:44;;;;;;;10.52;9.05;;;2.20;99.90;;;;;;6214514;23;20044;-87
2023/01/28 02:22:19;;;;;;;11.55;9.30;;;2.20;99.90;;;;;;6190481;23;20017;-87
2023/01/28 02:25:03;;;;;;;10.68;9.48;;;2.20;99.90;;;;;;6190031;23;20013;-87
2023/01/28 02:27:56;;;;;;;10.27;9.27;;;2.20;99.90;;;;;;6239557;23;20009;-87
2023/01/28 02:30:35;;;;;;;9.80;8.80;;;2.20;99.90;;;;;;6148447;23;20023;-87
2023/01/28 02:33:17;;;;;;;11.32;10.13;;;2.20;99.90;;;;;;6239772;23;20005;-87
2023/01/28 02:35:53;;;;;;;10.45;9.43;;;2.50;99.90;;;;;;6188198;23;20009;-87
2023/01/28 02:38:35;;;;;;;9.75;8.82;;;2.20;99.90;;;;;;6213732;23;20008;-87
2023/01/28 02:41:06;;;;;;;9.13;8.10;;;2.20;99.90;;;;;;6213654;23;20054;-87
2023/01/28 02:43:36;;;;;;;9.45;8.38;;;2.20;99.90;;;;;;6213619;23;20091;-87
2023/01/28 02:48:59;;;;;;;10.07;8.85;;;2.20;99.90;;;;;;6213763;23;20091;-87
2023/01/28 02:51:43;;;;;;;9.23;8.32;;;2.20;99.90;;;;;;6213408;23;20044;-87
2023/01/28 02:54:33;;;;;;;9.40;7.72;;;2.20;99.90;;;;;;6188474;23;20048;-86
2023/01/28 02:57:29;;;;;;;10.02;7.88;;;2.20;99.90;;;;;;6213715;23;20099;-87
2023/01/28 02:59:54;;;;;;;9.00;7.60;;;2.20;99.90;;;;;;6239627;23;20481;-88
2023/01/28 03:02:44;;;;;;;10.07;7.45;;;2.20;99.90;;;;;;6214212;23;20185;-87
2023/01/28 03:05:21;;;;;;;7.90;7.07;;;2.20;99.90;;;;;;6213432;23;20016;-87
2023/01/28 03:07:48;;;;;;;8.38;7.43;;;2.20;99.90;;;;;;6214052;23;20013;-87
2023/01/28 03:10:19;;;;;;;11.13;9.05;;;2.20;99.90;;;;;;6220328;23;20052;-88
2023/01/28 03:38:42;;;;;;;12.55;10.25;;;2.10;99.90;;;;;;6215286;23;20013;-87
2023/01/28 03:41:19;;;;;;;10.93;9.82;;;2.30;99.90;;;;;;6214592;23;20482;-87
2023/01/28 03:43:45;;;;;;;11.07;9.98;;;2.10;99.90;;;;;;6213106;23;20150;-87
2023/01/28 03:46:10;;;;;;;12.32;10.18;;;2.10;99.90;;;;;;6188320;23;20012;-88
2023/01/28 03:48:36;;;;;;;11.13;10.02;;;2.30;99.90;;;;;;6187858;23;20078;-87
2023/01/28 03:51:02;;;;;;;10.05;9.13;;;2.10;99.90;;;;;;6188243;23;20107;-87
2023/01/28 03:53:27;;;;;;;11.43;10.23;;;2.10;99.90;;;;;;6188195;23;20066;-86
2023/01/28 03:55:55;;;;;;;11.02;9.50;;;2.10;99.90;;;;;;6188098;23;20005;-87
2023/01/28 03:58:25;;;;;;;11.57;10.38;;;2.10;99.90;;;;;;6214691;23;20019;-86
2023/01/28 04:00:52;;;;;;;11.52;9.93;;;2.10;99.90;;;;;;6218196;23;20017;-87
2023/01/28 04:03:19;;;;;;;13.00;10.07;;;2.10;99.90;;;;;;6238430;23;20016;-87
2023/01/28 04:05:46;;;;;;;12.35;11.15;;;2.10;99.90;;;;;;6187857;23;20448;-87
2023/01/28 04:08:12;;;;;;;12.35;11.05;;;2.10;99.90;;;;;;6212928;23;20023;-87
2023/01/28 04:10:39;;;;;;;12.38;11.18;;;2.10;99.90;;;;;;6212952;23;20439;-87
2023/01/28 04:13:05;;;;;;;11.70;10.60;;;2.10;99.90;;;;;;6214577;23;20008;-87
2023/01/28 04:15:31;;;;;;;11.60;10.27;;;2.10;99.90;;;;;;6212736;23;20063;-87
2023/01/28 04:17:57;;;;;;;11.93;10.73;;;2.10;99.90;;;;;;6187584;23;20013;-87
2023/01/28 04:20:22;;;;;;;12.25;11.05;;;2.30;99.90;;;;;;6187695;23;20424;-88
2023/01/28 04:22:48;;;;;;;12.15;10.95;;;2.10;99.90;;;;;;6213180;23;20009;-87
2023/01/28 04:25:14;;;;;;;12.13;10.95;;;2.10;99.90;;;;;;6187888;23;20012;-87
2023/01/28 04:27:39;;;;;;;12.52;11.32;;;2.10;99.90;;;;;;6187750;23;20098;-87
2023/01/28 04:30:06;;;;;;;12.05;10.80;;;2.10;99.90;;;;;;6187564;23;20012;-87
2023/01/28 04:32:31;;;;;;;10.65;9.65;;;2.10;99.90;;;;;;6213010;23;20087;-88
2023/01/28 04:34:57;;;;;;;12.48;11.27;;;2.10;99.90;;;;;;6212734;23;20075;-88
2023/01/28 04:37:22;;;;;;;11.50;10.40;;;2.10;99.90;;;;;;6214841;23;20407;-88
2023/01/28 04:39:48;;;;;;;13.90;12.07;;;2.10;99.90;;;;;;6187916;23;20095;-87
2023/01/28 04:42:14;;;;;;;11.13;10.02;;;2.00;99.90;;;;;;6187574;23;20095;-87
2023/01/28 04:44:39;;;;;;;13.43;10.18;;;2.00;99.90;;;;;;6187646;23;20134;-87
2023/01/28 04:47:05;;;;;;;11.38;9.60;;;2.30;99.90;;;;;;6187857;23;20019;-87
2023/01/28 04:49:31;;;;;;;10.82;9.70;;;2.00;99.90;;;;;;6192782;23;20103;-88
2023/01/28 04:51:57;;;;;;;10.45;9.45;;;2.00;99.90;;;;;;6187609;23;20047;-87
2023/01/28 04:54:22;;;;;;;10.98;9.48;;;2.00;99.90;;;;;;6212866;23;20008;-87
2023/01/28 04:56:48;;;;;;;10.52;9.20;;;2.00;99.90;;;;;;6214665;23;20056;-87
2023/01/28 04:59:14;;;;;;;10.77;9.68;;;2.00;99.90;;;;;;6187387;23;20424;-87
2023/01/28 05:01:39;;;;;;;11.25;9.02;;;2.00;99.90;;;;;;6187324;23;20035;-87
2023/01/28 05:04:05;;;;;;;10.70;9.27;;;1.90;99.90;;;;;;6212584;23;20035;-87
2023/01/28 05:06:31;;;;;;;9.77;8.80;;;2.30;99.90;;;;;;6212681;23;20315;-87
2023/01/28 05:08:57;;;;;;;10.40;8.98;;;2.20;99.90;;;;;;6238103;23;20067;-87
2023/01/28 05:11:23;;;;;;;10.68;9.50;;;2.00;99.90;;;;;;6212678;23;20375;-88
2023/01/28 05:13:49;;;;;;;10.80;9.65;;;2.00;99.90;;;;;;6212669;23;20008;-87
2023/01/28 05:16:15;;;;;;;9.93;8.93;;;2.00;99.90;;;;;;6186826;23;20083;-87
2023/01/28 05:18:40;;;;;;;9.73;8.82;;;2.00;99.90;;;;;;6212999;23;20012;-88
2023/01/28 05:21:06;;;;;;;12.32;10.02;;;2.00;99.90;;;;;;6213093;23;20336;-87
2023/01/28 05:23:32;;;;;;;11.90;9.90;;;1.90;99.90;;;;;;6188118;23;20092;-87
2023/01/28 05:25:57;;;;;;;11.63;10.40;;;1.90;99.90;;;;;;6190975;23;20051;-87
2023/01/28 05:28:23;;;;;;;11.38;10.07;;;2.00;99.90;;;;;;6189412;23;20035;-87
2023/01/28 05:30:48;;;;;;;11.45;8.65;;;2.00;99.90;;;;;;6189853;23;20004;-87
2023/01/28 05:33:14;;;;;;;10.70;8.98;;;2.00;99.90;;;;;;6215135;23;20166;-88
2023/01/28 05:35:41;;;;;;;10.88;9.77;;;1.90;99.90;;;;;;6217700;23;20008;-87
2023/01/28 05:38:07;;;;;;;11.57;10.07;;;1.90;99.90;;;;;;6222434;23;20225;-87
2023/01/28 05:40:33;;;;;;;11.57;10.35;;;1.90;99.90;;;;;;6189145;23;20013;-87
2023/01/28 05:42:58;;;;;;;13.45;10.48;;;1.90;99.90;;;;;;6188420;23;20392;-87
2023/01/28 05:45:24;;;;;;;11.32;10.15;;;2.60;99.90;;;;;;6190249;23;20039;-88
2023/01/28 05:47:50;;;;;;;13.10;10.55;;;2.00;99.90;;;;;;6191532;23;20014;-86
2023/01/28 05:50:15;;;;;;;11.40;10.27;;;2.00;99.90;;;;;;6218960;23;20040;-87
2023/01/28 05:52:41;;;;;;;11.82;10.38;;;2.00;99.90;;;;;;6192123;23;20336;-87
2023/01/28 05:55:07;;;;;;;11.07;9.90;;;2.00;99.90;;;;;;6217679;23;20016;-87
2023/01/28 05:57:33;;;;;;;11.05;9.88;;;2.00;99.90;;;;;;6217547;23;20012;-87
2023/01/28 05:59:59;;;;;;;11.25;10.05;;;2.00;99.90;;;;;;6192169;23;20044;-86
2023/01/28 06:02:24;;;;;;;12.30;10.05;;;2.00;99.90;;;;;;6191607;23;20351;-86
2023/01/28 06:04:50;;;;;;;11.25;9.65;;;2.30;99.90;;;;;;6191831;23;20023;-87
2023/01/28 06:07:19;;;;;;;12.65;10.90;;;2.30;99.90;;;;;;6190782;23;20044;-87
2023/01/28 06:09:46;;;;;;;10.32;9.20;;;2.00;99.90;;;;;;6190462;23;20343;-87
2023/01/28 06:12:12;;;;;;;10.52;9.52;;;2.00;99.90;;;;;;6216649;23;20498;-87
2023/01/28 06:14:38;;;;;;;10.05;8.80;;;2.30;99.90;;;;;;6189372;23;20012;-88
2023/01/28 06:17:03;;;;;;;11.13;10.02;;;1.90;99.90;;;;;;6212373;23;20008;-88
2023/01/28 06:19:29;;;;;;;10.65;9.50;;;2.00;99.90;;;;;;6187323;23;20017;-87
2023/01/28 06:21:55;;;;;;;11.07;9.90;;;2.00;99.90;;;;;;6187277;23;20012;-88
2023/01/28 06:24:20;;;;;;;10.68;9.50;;;2.00;99.90;;;;;;6187723;23;20009;-87
2023/01/28 06:26:46;;;;;;;11.55;9.65;;;2.00;99.90;;;;;;6190233;23;20012;-87
2023/01/28 06:29:11;;;;;;;10.63;9.52;;;2.00;99.90;;;;;;6186314;23;20020;-87
2023/01/28 06:31:37;;;;;;;10.43;9.43;;;2.00;99.90;;;;;;6212046;23;20017;-86
2023/01/28 06:34:03;;;;;;;11.45;10.30;;;2.60;99.90;;;;;;6211906;23;20017;-86
2023/01/28 06:36:29;;;;;;;11.77;10.57;;;2.00;99.90;;;;;;6186904;23;20005;-87
2023/01/28 06:38:54;;;;;;;11.98;10.68;;;2.30;99.90;;;;;;6186292;23;20012;-89
2023/01/28 06:41:20;;;;;;;11.35;10.15;;;2.10;99.90;;;;;;6185144;23;20067;-89
2023/01/28 06:43:46;;;;;;;13.70;11.75;;;2.20;99.90;;;;;;6210552;23;20013;-89
2023/01/28 06:46:11;;;;;;;12.68;11.38;;;1.90;99.90;;;;;;6186034;23;20021;-89
2023/01/28 06:48:37;;;;;;;12.90;11.60;;;1.90;99.90;;;;;;6212450;23;20048;-89
2023/01/28 06:51:03;;;;;;;12.95;11.65;;;2.10;99.90;;;;;;6186866;23;20023;-88
2023/01/28 06:53:28;;;;;;;12.75;11.45;;;2.00;99.90;;;;;;6189100;23;20013;-88
2023/01/28 06:55:57;;;;;;;13.70;12.30;;;2.00;99.90;;;;;;6216600;23;20115;-88
2023/01/28 06:58:22;;;;;;;14.57;13.02;;;2.00;99.90;;;;;;6216182;23;20150;-87
2023/01/28 07:00:48;;;;;;;14.25;12.02;;;2.00;99.90;;;;;;6192704;23;20095;-88
2023/01/28 07:03:14;;;;;;;14.82;12.20;;;1.90;99.90;;;;;;6192616;23;20024;-88
2023/01/28 07:05:40;;;;;;;14.85;13.35;;;1.90;99.90;;;;;;6195322;23;20012;-87
2023/01/28 07:08:05;;;;;;;13.52;12.23;;;1.90;99.90;;;;;;6193455;23;20447;-87
2023/01/28 07:10:31;;;;;;;18.70;13.77;;;1.90;99.90;;;;;;6218303;23;20487;-88
2023/01/28 07:12:57;;;;;;;14.35;12.95;;;1.90;99.90;;;;;;6217447;23;20118;-83
2023/01/28 07:15:25;;;;;;;15.02;13.52;;;1.90;99.90;;;;;;6221703;23;20019;-86
2023/01/28 07:17:51;;;;;;;15.27;13.73;;;1.90;99.90;;;;;;6190631;23;20044;-87
2023/01/28 07:20:17;;;;;;;16.17;14.57;;;1.90;99.90;;;;;;6213160;23;20017;-88
2023/01/28 07:22:44;;;;;;;16.20;14.50;;;1.90;99.90;;;;;;6188059;23;20020;-87
2023/01/28 07:25:11;;;;;;;16.17;14.43;;;1.90;99.90;;;;;;6187915;23;20447;-87
2023/01/28 07:27:37;;;;;;;16.40;14.90;;;1.80;99.90;;;;;;6186835;23;20473;-84
2023/01/28 07:30:04;;;;;;;18.08;16.17;;;1.70;99.90;;;;;;6212906;23;20028;-86
2023/01/28 07:32:29;;;;;;;23.20;20.83;;;1.60;99.90;;;;;;6213044;23;20436;-86
2023/01/28 07:34:55;;;;;;;26.35;23.65;;;1.50;99.90;;;;;;6213037;23;20058;-86
2023/01/28 07:37:21;;;;;;;29.92;26.58;;;1.40;99.90;;;;;;6187729;23;20454;-86
2023/01/28 07:39:46;;;;;;;28.70;25.60;;;1.30;99.90;;;;;;6212733;23;20012;-87
2023/01/28 07:42:12;;;;;;;26.73;21.85;;;1.80;99.90;;;;;;6187462;23;20067;-86
2023/01/28 07:44:38;;;;;;;23.58;21.15;;;1.20;99.90;;;;;;6212725;23;20016;-86
2023/01/28 07:47:05;;;;;;;23.95;21.38;;;1.10;99.90;;;;;;6187888;23;20313;-87
2023/01/28 07:49:32;;;;;;;21.02;18.83;;;1.00;99.90;;;;;;6212690;23;20350;-86
2023/01/28 07:51:58;;;;;;;19.20;17.20;;;1.00;99.90;;;;;;6212844;23;20016;-87
2023/01/28 07:54:24;;;;;;;19.75;17.75;;;0.90;99.90;;;;;;6213327;23;20023;-87
2023/01/28 07:56:49;;;;;;;19.80;17.73;;;0.90;99.90;;;;;;6212874;23;20008;-87
2023/01/28 07:59:15;;;;;;;18.90;17.10;;;0.80;99.90;;;;;;6213359;23;20009;-87
2023/01/28 08:01:40;;;;;;;18.55;16.65;;;0.80;99.90;;;;;;6188857;23;20100;-87
2023/01/28 08:04:06;;;;;;;19.55;17.58;;;0.80;99.90;;;;;;6194902;23;20016;-86
2023/01/28 08:06:36;;;;;;;22.02;15.93;;;1.60;99.90;;;;;;6188703;23;20012;-87
2023/01/28 08:09:07;;;;;;;17.85;16.05;;;0.70;99.90;;;;;;6213318;23;20047;-87
2023/01/28 08:11:36;;;;;;;18.85;16.88;;;0.70;99.90;;;;;;6186891;23;20044;-86
2023/01/28 08:14:01;;;;;;;21.05;16.52;;;0.70;99.90;;;;;;6188081;23;20012;-87
2023/01/28 08:16:28;;;;;;;17.73;15.93;;;0.60;99.90;;;;;;6188256;23;20016;-87
2023/01/28 08:18:54;;;;;;;18.52;16.67;;;0.60;99.90;;;;;;6188414;23;20109;-87
2023/01/28 08:21:19;;;;;;;17.98;16.13;;;0.60;99.90;;;;;;6210736;23;20044;-86
2023/01/28 08:23:45;;;;;;;17.58;15.57;;;0.60;99.90;;;;;;6184824;23;20023;-87
2023/01/28 08:26:11;;;;;;;17.55;15.77;;;0.60;99.90;;;;;;6185547;23;20020;-87
2023/01/28 08:28:36;;;;;;;16.88;14.80;;;0.60;99.90;;;;;;6185618;23;20023;-86
2023/01/28 08:31:02;;;;;;;16.63;14.82;;;0.70;99.90;;;;;;6185679;23;20013;-86
2023/01/28 08:33:28;;;;;;;17.35;15.40;;;0.70;99.90;;;;;;6188797;23;20009;-87
2023/01/28 08:35:54;;;;;;;18.70;16.70;;;0.70;99.90;;;;;;6187303;23;20012;-86
2023/01/28 08:38:19;;;;;;;17.23;15.30;;;0.70;99.90;;;;;;6185672;23;20051;-87
2023/01/28 08:40:54;;;;;;;18.50;16.05;;;0.70;99.90;;;;;;6211003;23;20020;-87
2023/01/28 08:43:20;;;;;;;17.13;15.40;;;0.70;99.90;;;;;;6210691;23;20080;-87
2023/01/28 08:45:46;;;;;;;16.08;14.45;;;0.70;99.90;;;;;;6185551;23;20013;-87
2023/01/28 08:48:15;;;;;;;16.23;14.63;;;0.70;99.90;;;;;;6185790;23;20087;-87
2023/01/28 08:50:41;;;;;;;16.83;14.52;;;0.90;99.90;;;;;;6211769;23;20013;-85
2023/01/28 08:53:11;;;;;;;16.52;14.82;;;0.80;99.90;;;;;;6214141;23;20012;-86
2023/01/28 08:55:36;;;;;;;15.13;13.02;;;0.90;99.90;;;;;;6212895;23;20020;-85
2023/01/28 08:58:09;;;;;;;14.82;12.70;;;1.10;99.90;;;;;;6211886;23;20013;-89
2023/01/28 09:00:34;;;;;;;15.93;12.98;;;1.30;99.90;;;;;;6212418;23;20017;-87
2023/01/28 09:03:00;;;;;;;14.30;12.80;;;1.40;99.90;;;;;;6211711;23;20012;-88
2023/01/28 09:05:26;;;;;;;13.88;12.48;;;1.50;99.90;;;;;;6238086;23;20009;-87
2023/01/28 09:07:52;;;;;;;13.50;12.10;;;1.60;99.90;;;;;;6212090;23;20321;-87
2023/01/28 09:10:19;;;;;;;13.38;11.93;;;1.70;99.90;;;;;;6187324;23;20377;-87
2023/01/28 09:12:45;;;;;;;14.48;12.00;;;1.70;99.90;;;;;;6186359;23;20197;-86
2023/01/28 09:15:11;;;;;;;15.15;11.98;;;1.60;99.90;;;;;;6212628;23;20036;-87
2023/01/28 09:17:37;;;;;;;12.32;11.05;;;1.70;99.90;;;;;;6186903;23;20012;-87
2023/01/28 09:20:04;;;;;;;13.32;11.98;;;1.60;99.90;;;;;;6212797;23;20111;-86
2023/01/28 09:22:31;;;;;;;13.40;11.82;;;1.60;99.90;;;;;;6213513;23;20017;-86
2023/01/28 09:24:56;;;;;;;12.18;10.98;;;1.60;99.90;;;;;;6187093;23;20013;-88
2023/01/28 09:27:22;;;;;;;13.30;11.90;;;1.60;99.90;;;;;;6186500;23;20012;-87
2023/01/28 09:29:47;;;;;;;12.68;11.15;;;1.60;99.90;;;;;;6211596;23;20027;-86
2023/01/28 09:32:13;;;;;;;12.95;11.50;;;1.60;99.90;;;;;;6210949;23;20051;-86
2023/01/28 09:34:39;;;;;;;11.70;10.50;;;1.60;99.90;;;;;;6185830;23;20016;-87
2023/01/28 09:37:04;;;;;;;12.98;10.98;;;1.60;99.90;;;;;;6210781;23;20035;-87
2023/01/28 09:39:30;;;;;;;12.27;10.98;;;1.60;99.90;;;;;;6186601;23;20059;-87
2023/01/28 09:42:23;;;;;;;14.30;11.73;;;2.20;99.90;;;;;;6188784;23;20095;-86
2023/01/28 09:45:00;;;;;;;12.67;11.17;;;1.70;99.90;;;;;;6212184;23;20055;-86
2023/01/28 09:47:58;;;;;;;12.70;11.27;;;1.80;99.90;;;;;;6186320;23;20240;-87
2023/01/28 09:50:26;;;;;;;13.02;11.63;;;1.90;99.90;;;;;;6157918;23;20055;-87
2023/01/28 09:52:56;;;;;;;14.65;11.60;;;2.20;99.90;;;;;;6185141;23;20008;-87
2023/01/28 09:55:35;;;;;;;13.50;10.70;;;2.70;99.90;;;;;;6211758;23;20079;-86
2023/01/28 09:58:04;;;;;;;14.50;10.75;;;2.50;99.90;;;;;;6183429;23;20024;-87
2023/01/28 10:00:44;;;;;;;10.90;9.75;;;2.70;99.90;;;;;;6184971;23;20515;-87
2023/01/28 10:03:13;;;;;;;11.88;10.55;;;2.90;99.90;;;;;;6209381;23;20385;-87
2023/01/28 10:06:13;;;;;;;12.38;8.93;;;3.10;99.90;;;;;;6209898;23;20123;-86
2023/01/28 10:09:01;;;;;;;9.88;8.70;;;3.20;99.90;;;;;;6212078;23;20012;-86
2023/01/28 10:11:53;;;;;;;11.38;9.25;;;3.30;99.90;;;;;;6210167;23;20021;-86
2023/01/28 10:14:45;;;;;;;10.48;8.10;;;3.50;99.90;;;;;;6210206;23;20095;-86
2023/01/28 10:17:15;;;;;;;10.82;8.15;;;3.60;99.90;;;;;;6149076;23;20017;-86
2023/01/28 10:19:47;;;;;;;9.40;8.43;;;3.70;99.90;;;;;;6123700;23;20013;-86
2023/01/28 10:22:24;;;;;;;9.30;7.50;;;3.80;99.90;;;;;;6100191;23;20010;-86
2023/01/28 10:25:05;;;;;;;9.25;7.72;;;3.80;99.90;;;;;;6124431;23;20273;-86
2023/01/28 10:27:33;;;;;;;9.40;7.50;;;3.80;99.90;;;;;;6100355;23;20080;-86
2023/01/28 10:30:15;;;;;;;9.40;7.35;;;3.80;99.90;;;;;;6101109;23;20014;-86
2023/01/28 10:32:48;;;;;;;10.63;8.40;;;3.80;99.90;;;;;;6100950;23;20018;-86
2023/01/28 10:35:13;;;;;;;8.93;8.02;;;3.80;99.90;;;;;;6101465;23;20089;-86
2023/01/28 10:37:39;;;;;;;10.07;8.38;;;3.70;99.90;;;;;;6100746;23;20040;-86
2023/01/28 10:40:16;;;;;;;9.18;8.20;;;3.60;99.90;;;;;;6099763;23;20020;-85
2023/01/28 10:42:43;;;;;;;9.68;8.68;;;3.50;99.90;;;;;;6123870;23;20093;-87
2023/01/28 10:45:17;;;;;;;11.20;9.23;;;3.40;99.90;;;;;;6101081;23;20053;-88
2023/01/28 10:48:07;;;;;;;10.27;9.00;;;3.30;99.90;;;;;;6100447;23;20017;-86
2023/01/28 10:50:34;;;;;;;9.98;8.50;;;3.30;99.90;;;;;;6123234;23;20194;-86
2023/01/28 10:53:05;;;;;;;10.75;9.63;;;3.20;99.90;;;;;;6151049;23;20073;-87
2023/01/28 10:55:50;;;;;;;11.00;9.90;;;3.20;99.90;;;;;;6162459;23;20016;-87
2023/01/28 10:58:21;;;;;;;10.75;9.18;;;3.20;99.90;;;;;;6214499;23;20032;-86
2023/01/28 11:00:52;;;;;;;10.40;9.32;;;3.30;99.90;;;;;;6187194;23;20020;-86
2023/01/28 11:03:18;;;;;;;11.40;9.35;;;3.50;99.90;;;;;;6186361;23;20008;-86
2023/01/28 11:05:51;;;;;;;13.95;9.82;;;3.40;99.90;;;;;;6162210;23;20191;-86
2023/01/28 11:08:17;;;;;;;10.57;9.47;;;3.50;99.90;;;;;;6162386;23;20386;-87
2023/01/28 11:10:44;;;;;;;16.92;10.25;;;3.60;99.90;;;;;;6162318;23;20298;-87
2023/01/28 11:13:17;;;;;;;12.93;9.75;;;4.20;99.90;;;;;;6211353;23;20439;-86
2023/01/28 11:16:05;;;;;;;11.02;9.40;;;4.00;99.90;;;;;;6212250;23;20021;-86
2023/01/28 11:18:34;;;;;;;10.52;8.80;;;4.20;99.90;;;;;;6186296;23;20016;-86
2023/01/28 11:21:25;;;;;;;9.63;8.63;;;4.50;99.90;;;;;;6161724;23;20009;-87
2023/01/28 11:23:54;;;;;;;12.20;9.07;;;4.60;99.90;;;;;;6175717;23;20502;-86
2023/01/28 11:26:36;;;;;;;10.65;8.63;;;4.80;99.90;;;;;;6186168;23;20020;-87
2023/01/28 11:29:02;;;;;;;10.30;9.20;;;4.80;99.90;;;;;;6213399;23;20011;-86
2023/01/28 11:31:28;;;;;;;10.10;9.10;;;4.90;99.90;;;;;;6161559;23;20013;-86
2023/01/28 11:33:57;;;;;;;12.68;9.27;;;5.00;99.90;;;;;;6160548;23;20009;-85
2023/01/28 11:36:25;;;;;;;10.88;9.63;;;5.00;99.90;;;;;;6213543;23;20075;-86
2023/01/28 11:38:59;;;;;;;12.60;9.75;;;5.10;99.90;;;;;;6187359;23;20009;-87
2023/01/28 11:41:36;;;;;;;13.75;8.75;;;5.20;99.90;;;;;;6161560;23;20352;-86
2023/01/28 11:44:24;;;;;;;10.63;9.50;;;5.30;99.90;;;;;;6198797;23;20106;-85
2023/01/28 11:47:01;;;;;;;9.90;8.90;;;5.40;99.90;;;;;;6211014;23;20083;-86
2023/01/28 11:49:39;;;;;;;13.73;9.20;;;5.40;99.90;;;;;;6186561;23;20096;-86
2023/01/28 11:52:46;;;;;;;9.48;8.45;;;5.50;99.90;;;;;;6211096;23;20008;-85
2023/01/28 11:55:42;;;;;;;10.23;9.13;;;5.50;99.90;;;;;;6211464;23;20067;-84
2023/01/28 11:58:31;;;;;;;10.15;9.00;;;5.50;99.90;;;;;;6212120;23;20040;-85
2023/01/28 12:01:16;;;;;;;9.85;8.00;;;5.60;99.90;;;;;;6186633;23;20068;-85
2023/01/28 12:04:17;;;;;;;9.85;8.85;;;5.70;99.90;;;;;;6186382;23;20052;-86
2023/01/28 12:07:16;;;;;;;10.60;9.60;;;5.80;99.90;;;;;;6211792;23;20091;-84
2023/01/28 12:10:15;;;;;;;10.73;9.30;;;5.80;99.90;;;;;;6210865;23;20340;-86
2023/01/28 12:12:49;;;;;;;10.40;9.35;;;5.80;99.90;;;;;;6124130;23;20707;-86
2023/01/28 12:15:30;;;;;;;9.55;8.50;;;5.80;99.90;;;;;;6150083;23;20020;-86
2023/01/28 12:18:11;;;;;;;12.45;9.15;;;5.80;99.90;;;;;;6150830;23;20180;-83
2023/01/28 12:20:54;;;;;;;10.02;8.95;;;5.80;99.90;;;;;;6149878;23;20018;-83
2023/01/28 12:23:37;;;;;;;11.45;9.10;;;5.80;99.90;;;;;;6125833;23;20060;-85
2023/01/28 12:26:15;;;;;;;10.75;8.65;;;5.70;99.90;;;;;;6152702;23;20510;-84
2023/01/28 12:29:11;;;;;;;10.25;8.77;;;5.60;99.90;;;;;;6151878;23;20452;-84
2023/01/28 12:31:49;;;;;;;12.35;9.02;;;5.40;99.90;;;;;;6127133;23;20018;-84
2023/01/28 12:34:39;;;;;;;11.85;8.70;;;5.30;99.90;;;;;;6128542;23;20097;-86
2023/01/28 12:37:24;;;;;;;9.70;8.70;;;5.30;99.90;;;;;;6127187;23;20076;-85
2023/01/28 12:40:19;;;;;;;10.25;8.90;;;5.30;99.90;;;;;;6104441;23;20410;-86
2023/01/28 12:42:51;;;;;;;13.13;8.60;;;5.40;99.90;;;;;;6127595;23;20021;-85
2023/01/28 12:45:31;;;;;;;11.13;8.43;;;5.50;99.90;;;;;;6152732;23;20013;-86
2023/01/28 12:48:09;;;;;;;10.07;8.70;;;5.60;99.90;;;;;;6132583;23;20135;-86
2023/01/28 12:50:53;;;;;;;12.73;9.25;;;5.70;99.90;;;;;;6214073;23;20332;-86
2023/01/28 12:53:19;;;;;;;;;;;5.70;99.90;;;;;;6239393;23;20017;-86
2023/01/28 12:55:48;;;;;;;11.05;8.23;;;5.70;99.90;;;;;;6214253;23;20212;-86
2023/01/28 12:58:22;;;;;;;11.98;9.10;;;6.00;99.90;;;;;;6215384;23;20020;-86
2023/01/28 13:00:53;;;;;;;10.65;8.93;;;5.90;99.90;;;;;;6212934;23;20446;-86
2023/01/28 13:03:27;;;;;;;10.68;9.52;;;5.90;99.90;;;;;;6239842;23;20067;-86
2023/01/28 13:05:58;;;;;;;10.77;9.68;;;5.80;99.90;;;;;;6189212;23;20066;-86
2023/01/28 13:08:26;;;;;;;11.57;9.13;;;5.80;99.90;;;;;;6238335;23;20017;-86
2023/01/28 13:10:55;;;;;;;12.48;9.60;;;5.90;99.90;;;;;;6212306;23;20341;-86
2023/01/28 13:13:29;;;;;;;12.05;9.82;;;5.60;99.90;;;;;;6236036;23;20016;-86
2023/01/28 13:15:55;;;;;;;13.25;10.00;;;5.60;99.90;;;;;;6210753;23;20332;-86
2023/01/28 13:18:39;;;;;;;11.60;9.88;;;5.40;99.90;;;;;;6211226;23;20030;-86
2023/01/28 13:21:06;;;;;;;12.05;10.38;;;5.40;99.90;;;;;;6212260;23;20441;-86
2023/01/28 13:23:40;;;;;;;13.20;10.70;;;5.30;99.90;;;;;;6210360;23;20443;-86
2023/01/28 13:26:17;;;;;;;13.02;10.32;;;5.80;99.90;;;;;;6185590;23;20012;-86
2023/01/28 13:28:43;;;;;;;14.57;11.05;;;5.40;99.90;;;;;;6185249;23;20023;-86